Time;durP1;ratioP1;P1;durP2;ratioP2;P2;SDS_P1;SDS_P2;PMS_P1;PMS_P2;Temp;Humidity;BMP_temperature;BMP_pressure;BME280_temperature;BME280_humidity;BME280_pressure;Samples;Min_cycle;Max_cycle;Signal;HPM_P1;HPM_P2
2022/08/24 00:01:20;;;;;;;3.20;1.85;;;22.40;99.90;;;;;;1898442;75;21110;-83
2022/08/24 00:07:08;;;;;;;3.37;1.87;;;22.40;99.90;;;;;;1954746;72;22272;-84
2022/08/24 00:10:16;;;;;;;3.62;2.08;;;22.40;99.90;;;;;;1903569;75;21059;-87
2022/08/24 00:13:09;;;;;;;3.58;1.75;;;22.40;99.90;;;;;;1880206;75;21055;-88
2022/08/24 00:16:01;;;;;;;2.77;1.67;;;22.30;99.90;;;;;;1895276;75;21094;-88
2022/08/24 00:18:52;;;;;;;5.28;2.25;;;22.30;99.90;;;;;;1899115;75;21145;-88
2022/08/24 00:24:31;;;;;;;3.45;2.17;;;22.30;99.90;;;;;;1942882;72;22256;-83
2022/08/24 00:27:31;;;;;;;4.12;1.90;;;22.30;99.90;;;;;;1917894;74;21164;-85
2022/08/24 00:30:24;;;;;;;2.85;1.92;;;22.30;99.90;;;;;;1918759;74;21047;-81
2022/08/24 00:33:15;;;;;;;3.92;2.22;;;22.20;99.90;;;;;;1931675;74;21555;-82
2022/08/24 00:36:07;;;;;;;4.60;2.15;;;22.20;99.90;;;;;;1925082;74;21213;-82
2022/08/24 00:38:59;;;;;;;4.17;2.30;;;22.20;99.90;;;;;;1907718;74;21037;-82
2022/08/24 00:41:57;;;;;;;3.95;2.00;;;22.00;99.90;;;;;;1927790;74;21036;-82
2022/08/24 00:44:49;;;;;;;2.08;1.87;;;21.90;99.90;;;;;;1933010;74;21047;-82
2022/08/24 00:47:48;;;;;;;3.70;1.72;;;21.80;99.90;;;;;;1915520;74;21519;-83
2022/08/24 00:50:42;;;;;;;2.12;1.90;;;21.90;99.90;;;;;;1912194;74;21094;-83
2022/08/24 00:53:37;;;;;;;3.52;2.02;;;21.90;99.90;;;;;;1921339;74;21057;-82
2022/08/24 00:56:48;;;;;;;3.92;2.45;;;22.00;99.90;;;;;;1911452;74;21055;-82
2022/08/24 00:59:56;;;;;;;4.05;2.00;;;21.90;99.90;;;;;;1928279;74;21050;-82
2022/08/24 01:05:26;;;;;;;2.70;1.98;;;22.00;99.90;;;;;;1944572;72;22594;-85
2022/08/24 01:08:22;;;;;;;4.83;2.60;;;22.00;99.90;;;;;;1902693;74;21104;-85
2022/08/24 01:11:14;;;;;;;5.40;1.92;;;22.10;99.90;;;;;;1906651;75;21215;-86
2022/08/24 01:14:07;;;;;;;4.83;2.17;;;22.00;99.90;;;;;;1894450;75;21169;-86
2022/08/24 01:20:22;;;;;;;4.15;2.27;;;21.80;99.90;;;;;;1893965;75;21132;-85
2022/08/24 01:23:30;;;;;;;4.33;2.40;;;21.80;99.90;;;;;;1899233;75;21510;-86
2022/08/24 01:29:19;;;;;;;3.27;2.10;;;21.80;99.90;;;;;;1938797;72;22554;-83
2022/08/24 01:34:55;;;;;;;4.22;2.05;;;21.80;99.90;;;;;;1956144;72;22725;-84
2022/08/24 01:37:47;;;;;;;3.08;2.40;;;21.70;99.90;;;;;;1904494;75;21047;-82
2022/08/24 01:40:49;;;;;;;4.00;2.30;;;21.70;99.90;;;;;;1909371;74;21156;-82
2022/08/24 01:43:41;;;;;;;3.27;2.27;;;21.70;99.90;;;;;;1900732;74;21044;-79
2022/08/24 01:46:33;;;;;;;3.25;2.22;;;21.70;99.90;;;;;;1906706;75;21106;-79
2022/08/24 01:49:40;;;;;;;4.15;2.40;;;21.70;99.90;;;;;;1893779;75;21123;-83
2022/08/24 01:52:32;;;;;;;5.60;2.20;;;21.70;99.90;;;;;;1890622;75;21052;-83
2022/08/24 01:55:33;;;;;;;5.62;2.30;;;21.70;99.90;;;;;;1897216;75;21122;-83
2022/08/24 01:58:24;;;;;;;6.28;2.35;;;21.70;99.90;;;;;;1907439;74;21109;-83
2022/08/24 02:01:17;;;;;;;3.45;2.22;;;21.60;99.90;;;;;;1888158;75;21131;-83
2022/08/24 02:04:10;;;;;;;3.60;2.33;;;21.60;99.90;;;;;;1913359;74;21075;-82
2022/08/24 02:07:03;;;;;;;4.35;2.15;;;21.50;99.90;;;;;;1896993;75;21169;-80
2022/08/24 02:09:56;;;;;;;4.28;2.30;;;21.50;99.90;;;;;;1912033;74;21058;-80
2022/08/24 02:12:57;;;;;;;3.90;2.50;;;21.40;99.90;;;;;;1918314;74;21166;-79
2022/08/24 02:15:48;;;;;;;4.40;2.17;;;21.40;99.90;;;;;;1916716;74;21178;-83
2022/08/24 02:18:40;;;;;;;2.42;2.12;;;21.40;99.90;;;;;;1908477;74;21072;-85
2022/08/24 02:21:31;;;;;;;3.42;2.50;;;21.40;99.90;;;;;;1884836;75;21185;-85
2022/08/24 02:24:22;;;;;;;2.87;1.92;;;21.30;99.90;;;;;;1895159;75;21053;-86
2022/08/24 02:27:15;;;;;;;2.47;1.98;;;21.30;99.90;;;;;;1887720;75;21144;-85
2022/08/24 02:30:10;;;;;;;4.95;2.15;;;21.30;99.90;;;;;;1906299;74;21049;-86
2022/08/24 02:33:05;;;;;;;5.95;2.15;;;21.30;99.90;;;;;;1884786;75;21055;-86
2022/08/24 02:35:57;;;;;;;2.67;2.15;;;21.30;99.90;;;;;;1911728;75;21072;-85
2022/08/24 02:38:49;;;;;;;3.40;2.02;;;21.30;99.90;;;;;;1911006;74;22254;-86
2022/08/24 02:41:41;;;;;;;2.83;1.75;;;21.20;99.90;;;;;;1906893;75;21119;-90
2022/08/24 02:44:40;;;;;;;5.10;2.10;;;21.20;99.90;;;;;;1901060;75;21346;-89
2022/08/24 02:47:39;;;;;;;5.15;2.27;;;21.20;99.90;;;;;;1891811;75;21116;-82
2022/08/24 02:50:32;;;;;;;3.45;2.22;;;21.20;99.90;;;;;;1882302;75;21046;-82
2022/08/24 02:53:24;;;;;;;4.83;2.47;;;21.20;99.90;;;;;;1905027;75;21075;-82
2022/08/24 02:56:16;;;;;;;3.08;2.12;;;21.10;99.90;;;;;;1895286;75;21108;-83
2022/08/24 02:59:07;;;;;;;4.25;2.30;;;21.10;99.90;;;;;;1887986;75;21135;-84
2022/08/24 03:04:39;;;;;;;2.83;2.08;;;21.00;99.90;;;;;;1931350;72;22211;-85
2022/08/24 03:10:10;;;;;;;3.02;1.87;;;21.00;99.90;;;;;;1951338;72;22252;-84
2022/08/24 03:13:03;;;;;;;3.40;2.00;;;21.00;99.90;;;;;;1899536;74;21086;-85
2022/08/24 03:15:55;;;;;;;3.47;1.95;;;21.00;99.90;;;;;;1899710;75;21176;-84
2022/08/24 03:18:47;;;;;;;2.45;2.10;;;21.00;99.90;;;;;;1907369;75;21129;-87
2022/08/24 03:21:39;;;;;;;3.60;2.17;;;21.00;99.90;;;;;;1895232;75;21047;-87
2022/08/24 03:24:34;;;;;;;3.52;2.33;;;21.00;99.90;;;;;;1895988;75;21063;-88
2022/08/24 03:27:25;;;;;;;3.20;2.17;;;20.90;99.90;;;;;;1900571;74;21085;-87
2022/08/24 03:30:18;;;;;;;4.05;2.15;;;20.90;99.90;;;;;;1885117;75;21140;-88
2022/08/24 03:33:12;;;;;;;2.87;2.08;;;20.90;99.90;;;;;;1898020;74;21118;-87
2022/08/24 03:36:04;;;;;;;3.27;2.17;;;20.90;99.90;;;;;;1884912;75;21121;-88
2022/08/24 03:38:56;;;;;;;2.45;2.10;;;20.90;99.90;;;;;;1899486;75;21059;-87
2022/08/24 03:47:08;;;;;;;6.28;2.52;;;20.80;99.90;;;;;;1936825;72;22185;-87
2022/08/24 03:50:01;;;;;;;5.58;2.70;;;20.70;99.90;;;;;;1896824;75;21069;-87
2022/08/24 03:52:53;;;;;;;3.22;2.40;;;20.70;99.90;;;;;;1890038;74;21100;-84
2022/08/24 03:55:45;;;;;;;4.03;2.83;;;20.70;99.90;;;;;;1881863;74;21195;-84
2022/08/24 03:58:40;;;;;;;3.60;2.40;;;20.70;99.90;;;;;;1902989;73;21093;-84
2022/08/24 04:01:31;;;;;;;2.30;2.00;;;20.70;99.90;;;;;;1903994;73;21153;-84
2022/08/24 04:04:23;;;;;;;4.72;2.50;;;20.60;99.90;;;;;;1897626;75;21048;-81
2022/08/24 04:07:14;;;;;;;2.45;2.17;;;20.60;99.90;;;;;;1899908;73;21186;-81
2022/08/24 04:10:08;;;;;;;4.05;2.40;;;20.60;99.90;;;;;;1885662;74;21151;-81
2022/08/24 04:15:42;;;;;;;4.28;2.90;;;20.60;99.90;;;;;;1937215;72;22179;-81
2022/08/24 04:18:33;;;;;;;2.65;2.35;;;20.50;99.90;;;;;;1893751;74;21095;-81
2022/08/24 04:21:27;;;;;;;4.55;2.47;;;20.50;99.90;;;;;;1873080;75;21106;-81
2022/08/24 04:24:19;;;;;;;4.30;2.65;;;20.50;99.90;;;;;;1880259;75;21061;-82
2022/08/24 04:27:10;;;;;;;4.37;2.30;;;20.50;99.90;;;;;;1883414;75;21090;-83
2022/08/24 04:30:02;;;;;;;5.20;2.20;;;20.50;99.90;;;;;;1902022;75;21065;-83
2022/08/24 04:35:38;;;;;;;3.58;2.40;;;20.30;99.90;;;;;;1931055;72;22941;-81
2022/08/24 04:38:30;;;;;;;4.50;2.52;;;20.30;99.90;;;;;;1894474;75;21048;-82
2022/08/24 04:41:23;;;;;;;7.33;2.58;;;20.20;99.90;;;;;;1873271;75;21102;-82
2022/08/24 04:46:57;;;;;;;3.42;2.52;;;20.20;99.90;;;;;;1945157;72;22160;-82
2022/08/24 04:49:51;;;;;;;5.45;2.62;;;20.20;99.90;;;;;;1925610;73;21186;-82
2022/08/24 04:52:42;;;;;;;4.42;2.70;;;20.20;99.90;;;;;;1935286;73;21116;-81
2022/08/24 04:55:43;;;;;;;3.95;2.50;;;20.30;99.90;;;;;;1917424;73;21226;-81
2022/08/24 04:58:34;;;;;;;3.62;2.52;;;20.30;99.90;;;;;;1920204;73;21052;-82
2022/08/24 05:01:28;;;;;;;5.45;2.58;;;20.30;99.90;;;;;;1920946;73;21105;-81
2022/08/24 05:04:20;;;;;;;6.15;2.40;;;20.30;99.90;;;;;;1916574;75;21116;-82
2022/08/24 05:07:12;;;;;;;3.62;2.40;;;20.30;99.90;;;;;;1917004;73;21114;-82
2022/08/24 05:10:07;;;;;;;5.10;2.60;;;20.30;99.90;;;;;;1926451;73;21116;-82
2022/08/24 05:12:58;;;;;;;4.47;2.60;;;20.40;99.90;;;;;;1917387;75;21658;-81
2022/08/24 05:15:50;;;;;;;3.65;3.08;;;20.30;99.90;;;;;;1917276;73;21099;-82
2022/08/24 05:18:43;;;;;;;3.75;2.55;;;20.30;99.90;;;;;;1913666;73;21060;-82
2022/08/24 05:21:35;;;;;;;5.67;2.47;;;20.30;99.90;;;;;;1917600;75;21071;-82
2022/08/24 05:24:27;;;;;;;3.80;2.77;;;20.30;99.90;;;;;;1944191;73;21619;-82
2022/08/24 05:30:02;;;;;;;4.17;2.40;;;20.20;99.90;;;;;;1959526;72;22130;-83
2022/08/24 05:32:55;;;;;;;4.53;2.50;;;20.20;99.90;;;;;;1905343;74;21056;-83
2022/08/24 05:35:47;;;;;;;12.30;3.35;;;20.30;99.90;;;;;;1905126;74;21056;-83
2022/08/24 05:38:38;;;;;;;18.32;5.03;;;20.30;99.90;;;;;;1918650;74;21087;-82
2022/08/24 05:41:30;;;;;;;20.48;5.30;;;20.40;99.90;;;;;;1905011;75;21039;-83
2022/08/24 05:44:23;;;;;;;19.10;5.08;;;20.40;99.90;;;;;;1913388;74;21117;-82
2022/08/24 05:47:16;;;;;;;17.57;4.25;;;20.50;99.90;;;;;;1904940;74;21548;-86
2022/08/24 05:50:10;;;;;;;8.00;3.15;;;20.50;99.90;;;;;;1922890;73;21159;-81
2022/08/24 05:53:03;;;;;;;20.15;4.55;;;20.50;99.90;;;;;;1914132;74;21032;-82
2022/08/24 05:58:33;;;;;;;5.50;2.95;;;20.60;99.90;;;;;;1932489;72;22125;-82
2022/08/24 06:01:27;;;;;;;3.60;2.50;;;20.50;99.90;;;;;;1911431;75;21227;-82
2022/08/24 06:04:34;;;;;;;5.08;2.72;;;20.50;99.90;;;;;;1915774;75;21047;-82
2022/08/24 06:07:25;;;;;;;3.02;2.52;;;20.50;99.90;;;;;;1913575;75;21110;-83
2022/08/24 06:10:18;;;;;;;8.60;3.12;;;20.50;99.90;;;;;;1915668;75;21058;-82
2022/08/24 06:16:05;;;;;;;3.17;2.75;;;20.50;99.90;;;;;;1933040;72;22289;-83
2022/08/24 06:18:58;;;;;;;4.42;2.80;;;20.50;99.90;;;;;;1899450;74;21161;-80
2022/08/24 06:27:47;;;;;;;4.80;2.90;;;20.60;99.90;;;;;;1936611;73;21073;-81
2022/08/24 06:30:39;;;;;;;7.90;3.02;;;20.70;99.90;;;;;;1933375;73;21101;-82
2022/08/24 06:33:41;;;;;;;4.55;2.65;;;20.70;99.90;;;;;;1932636;73;21145;-81
2022/08/24 06:36:33;;;;;;;2.65;2.42;;;20.80;99.90;;;;;;1931020;73;21159;-84
2022/08/24 06:44:49;;;;;;;3.98;3.37;;;20.80;99.90;;;;;;1938051;72;22210;-86
2022/08/24 06:47:43;;;;;;;5.97;3.10;;;21.00;99.90;;;;;;1905366;75;21180;-84
2022/08/24 06:50:35;;;;;;;5.37;3.30;;;21.00;99.90;;;;;;1895932;75;21190;-86
2022/08/24 06:53:28;;;;;;;4.70;3.50;;;21.00;99.90;;;;;;1896700;75;21050;-81
2022/08/24 06:56:21;;;;;;;3.08;2.60;;;21.00;99.90;;;;;;1898107;75;21055;-79
2022/08/24 06:59:12;;;;;;;5.45;3.17;;;21.00;99.90;;;;;;1894795;75;21094;-83
2022/08/24 07:04:50;;;;;;;3.08;2.77;;;21.20;99.90;;;;;;1947715;72;22335;-81
2022/08/24 07:08:06;;;;;;;6.80;3.10;;;21.30;99.90;;;;;;1908174;74;21035;-80
2022/08/24 07:11:01;;;;;;;8.98;3.20;;;21.30;99.90;;;;;;1913215;74;21087;-80
2022/08/24 07:13:53;;;;;;;4.53;2.67;;;21.30;99.90;;;;;;1917558;74;21140;-80
2022/08/24 07:16:46;;;;;;;5.60;2.67;;;21.30;99.90;;;;;;1919124;74;21083;-86
2022/08/24 07:19:47;;;;;;;3.58;2.52;;;21.30;99.90;;;;;;1917451;74;21096;-86
2022/08/24 07:22:56;;;;;;;4.47;2.77;;;21.40;99.90;;;;;;1919416;74;21718;-95
2022/08/24 07:25:48;;;;;;;3.65;2.80;;;21.40;99.90;;;;;;1919293;74;21642;-86
2022/08/24 07:28:43;;;;;;;6.90;3.08;;;21.50;99.90;;;;;;1933621;74;21103;-86
2022/08/24 07:31:35;;;;;;;3.02;2.72;;;21.50;99.90;;;;;;1905021;75;21249;-86
2022/08/24 07:39:56;;;;;;;4.72;2.47;;;22.10;99.90;;;;;;1941835;72;22203;-90
2022/08/24 07:42:50;;;;;;;3.52;2.95;;;22.10;99.90;;;;;;1877998;74;21131;-84
2022/08/24 07:45:43;;;;;;;4.30;2.95;;;22.20;99.90;;;;;;1877084;75;21044;-85
2022/08/24 07:48:35;;;;;;;4.40;2.60;;;22.30;99.90;;;;;;1883239;75;21070;-86
2022/08/24 07:51:28;;;;;;;5.65;2.77;;;22.40;99.90;;;;;;1886283;75;21091;-85
2022/08/24 07:54:27;;;;;;;7.05;2.98;;;22.40;99.90;;;;;;1889979;75;21103;-86
2022/08/24 07:57:20;;;;;;;4.50;2.65;;;22.50;99.90;;;;;;1890862;75;21134;-86
2022/08/24 08:00:18;;;;;;;4.17;2.58;;;22.50;99.90;;;;;;1877143;75;21119;-86
2022/08/24 08:03:11;;;;;;;9.08;3.27;;;22.60;99.90;;;;;;1879535;75;21048;-85
2022/08/24 08:06:06;;;;;;;4.78;2.55;;;22.70;99.90;;;;;;1887816;75;21040;-85
2022/08/24 08:11:39;;;;;;;3.37;2.77;;;22.90;99.90;;;;;;1937665;72;22544;-85
2022/08/24 08:17:17;;;;;;;5.78;3.12;;;23.10;99.90;;;;;;1929536;72;22142;-85
2022/08/24 08:25:31;;;;;;;4.15;3.08;;;23.30;99.90;;;;;;1948266;72;22421;-86
2022/08/24 08:31:05;;;;;;;4.95;3.10;;;23.60;99.90;;;;;;1945873;72;22781;-86
2022/08/24 08:36:42;;;;;;;3.55;2.70;;;23.70;99.90;;;;;;1945832;72;22243;-86
2022/08/24 08:39:35;;;;;;;4.08;3.30;;;23.70;99.90;;;;;;1888091;75;21112;-86
2022/08/24 08:42:57;;;;;;;4.97;3.80;;;23.90;99.90;;;;;;1885351;75;21055;-86
2022/08/24 08:45:58;;;;;;;5.55;4.45;;;24.00;99.90;;;;;;1890822;75;21067;-86
2022/08/24 08:52:26;;;;;;;4.10;2.80;;;24.20;99.90;;;;;;1950943;72;22184;-86
2022/08/24 08:55:26;;;;;;;4.37;2.62;;;24.20;99.90;;;;;;1941577;73;21539;-85
2022/08/24 08:58:31;;;;;;;4.25;2.90;;;24.30;99.90;;;;;;1925936;73;21136;-85
2022/08/24 09:01:29;;;;;;;4.37;3.10;;;24.30;99.90;;;;;;1931555;73;21074;-84
2022/08/24 09:05:01;;;;;;;3.50;2.80;;;24.40;99.90;;;;;;1881758;74;21208;-85
2022/08/24 09:07:58;;;;;;;4.05;2.62;;;24.50;99.90;;;;;;1930031;74;21322;-84
2022/08/24 09:11:04;;;;;;;9.30;2.60;;;24.70;99.90;;;;;;1943545;73;21118;-92
2022/08/24 09:14:21;;;;;;;3.35;2.50;;;24.70;99.90;;;;;;1934626;72;21076;-86
2022/08/24 09:20:34;;;;;;;3.47;2.85;;;24.90;99.90;;;;;;1946149;72;22122;-90
2022/08/24 09:26:18;;;;;;;4.47;2.67;;;25.10;99.90;;;;;;1933579;72;22367;-88
2022/08/24 09:29:15;;;;;;;4.55;2.70;;;25.10;99.90;;;;;;1896230;75;21063;-88
2022/08/24 09:32:33;;;;;;;4.80;2.90;;;25.20;99.90;;;;;;1900108;75;21176;-88
2022/08/24 09:35:38;;;;;;;5.30;2.70;;;25.30;99.90;;;;;;1913372;75;21031;-88
2022/08/24 09:38:36;;;;;;;3.37;2.72;;;25.40;99.90;;;;;;1886425;75;21233;-87
2022/08/24 09:45:26;;;;;;;4.62;2.45;;;25.60;99.90;;;;;;1941732;73;22154;-88
2022/08/24 09:48:56;;;;;;;5.03;3.15;;;25.70;99.90;;;;;;1934412;73;21118;-88
2022/08/24 09:55:24;;;;;;;3.17;2.77;;;25.90;99.90;;;;;;1949682;72;22109;-89
2022/08/24 09:58:24;;;;;;;3.17;2.70;;;25.90;99.90;;;;;;1921610;73;21136;-88
2022/08/24 10:01:27;;;;;;;5.45;2.90;;;26.00;99.90;;;;;;1917874;75;21388;-88
2022/08/24 10:23:23;;;;;;;3.40;2.62;;;26.50;99.90;;;;;;1949081;72;22150;-90
2022/08/24 10:29:24;;;;;;;6.10;2.70;;;26.70;99.90;;;;;;1953061;72;22093;-90
2022/08/24 10:32:21;;;;;;;6.00;3.00;;;26.80;99.90;;;;;;1930880;73;21389;-89
2022/08/24 10:35:17;;;;;;;4.90;3.17;;;26.80;99.90;;;;;;1934481;73;21099;-89
2022/08/24 10:44:52;;;;;;;3.08;2.72;;;27.10;99.90;;;;;;1943445;72;22110;-89
2022/08/24 10:53:26;;;;;;;3.85;2.77;;;27.20;99.90;;;;;;2079848;68;22204;-90
2022/08/24 10:56:22;;;;;;;3.62;2.65;;;27.30;99.90;;;;;;2025996;70;21027;-90
2022/08/24 10:59:23;;;;;;;3.33;2.65;;;27.50;99.90;;;;;;2044214;70;21051;-90
2022/08/24 11:02:31;;;;;;;3.05;2.80;;;27.40;99.90;;;;;;2023255;70;21123;-89
2022/08/24 11:08:14;;;;;;;4.47;3.20;;;27.50;99.90;;;;;;1948552;72;22153;-89
2022/08/24 11:11:10;;;;;;;3.72;3.00;;;27.70;99.90;;;;;;1881911;75;21124;-91
2022/08/24 11:14:04;;;;;;;3.75;2.77;;;27.80;99.90;;;;;;1897618;75;21048;-90
2022/08/24 11:19:58;;;;;;;5.25;3.08;;;28.00;99.90;;;;;;1963276;72;22254;-89
2022/08/24 11:23:03;;;;;;;5.05;2.87;;;28.00;99.90;;;;;;1925734;73;21554;-89
2022/08/24 11:28:44;;;;;;;3.80;2.67;;;28.10;99.90;;;;;;1931967;72;22180;-86
2022/08/24 11:34:36;;;;;;;3.65;2.67;;;28.40;99.90;;;;;;1929867;72;22189;-89
2022/08/24 11:40:13;;;;;;;5.28;2.52;;;28.60;99.90;;;;;;1944608;72;22237;-89
2022/08/24 11:43:25;;;;;;;3.40;2.50;;;28.70;99.90;;;;;;1918514;73;21059;-89
2022/08/24 11:46:23;;;;;;;3.77;2.67;;;28.70;99.90;;;;;;1918159;73;21463;-90
2022/08/24 11:49:19;;;;;;;3.15;2.40;;;28.90;99.90;;;;;;1921237;73;21167;-89
2022/08/24 11:54:59;;;;;;;4.75;2.60;;;29.20;99.90;;;;;;1938874;72;22260;-83
2022/08/24 12:00:44;;;;;;;3.02;2.45;;;29.30;99.90;;;;;;1942680;72;22229;-87
2022/08/24 12:03:46;;;;;;;3.90;2.42;;;29.20;99.90;;;;;;1905581;75;21136;-86
2022/08/24 12:06:47;;;;;;;4.87;2.90;;;29.30;99.90;;;;;;1916134;75;21086;-86
2022/08/24 12:12:46;;;;;;;3.80;2.62;;;29.50;99.90;;;;;;1949679;72;22099;-79
2022/08/24 12:15:50;;;;;;;4.58;2.52;;;29.50;99.90;;;;;;1921895;73;21161;-78
2022/08/24 12:21:44;;;;;;;3.25;2.45;;;29.80;99.90;;;;;;1941086;72;22177;-85
2022/08/24 12:24:38;;;;;;;3.05;2.52;;;29.90;99.90;;;;;;1927779;73;21131;-86
2022/08/24 12:27:32;;;;;;;2.30;2.10;;;29.80;99.90;;;;;;1922548;73;21098;-92
2022/08/24 12:30:24;;;;;;;3.25;2.40;;;29.90;99.90;;;;;;1930495;73;21098;-82
2022/08/24 12:33:18;;;;;;;5.60;2.20;;;29.80;99.40;;;;;;1941216;73;21112;-80
2022/08/24 12:36:15;;;;;;;6.67;2.58;;;29.90;98.30;;;;;;1936047;73;21531;-79
2022/08/24 12:39:11;;;;;;;5.10;2.70;;;30.10;98.50;;;;;;1923096;73;21172;-89
2022/08/24 12:44:58;;;;;;;5.00;2.80;;;30.00;99.60;;;;;;1911813;72;28604;-81
2022/08/24 12:47:57;;;;;;;4.10;3.15;;;30.30;98.70;;;;;;1902934;75;21063;-81
2022/08/24 12:50:53;;;;;;;;;;;30.30;99.00;;;;;;1902889;75;21052;-79
2022/08/24 12:59:57;;;;;;;8.08;3.40;;;30.40;99.00;;;;;;1937963;72;22114;-83
2022/08/24 13:02:59;;;;;;;3.70;2.40;;;30.50;98.60;;;;;;1907229;75;21164;-79
2022/08/24 13:06:04;;;;;;;2.65;2.20;;;30.40;97.20;;;;;;1906845;75;21106;-79
2022/08/24 13:09:04;;;;;;;2.83;2.30;;;30.50;95.30;;;;;;1906347;75;21071;-80
2022/08/24 13:14:37;;;;;;;3.47;2.55;;;31.00;96.00;;;;;;1941712;72;22271;-80
2022/08/24 13:17:42;;;;;;;3.75;2.17;;;31.00;96.80;;;;;;1908763;73;21054;-83
2022/08/24 13:20:53;;;;;;;3.50;1.90;;;31.10;96.00;;;;;;1907352;75;21110;-79
2022/08/24 13:23:45;;;;;;;3.95;3.05;;;31.10;94.50;;;;;;1909241;75;21373;-77
2022/08/24 13:26:37;;;;;;;3.72;2.77;;;31.00;95.80;;;;;;1907499;75;21155;-80
2022/08/24 13:29:31;;;;;;;4.40;2.70;;;31.10;96.60;;;;;;1916855;75;21101;-79
2022/08/24 13:35:43;;;;;;;3.92;2.02;;;31.70;94.40;;;;;;1938196;72;22643;-81
2022/08/24 13:39:15;;;;;;;3.42;2.50;;;31.60;94.10;;;;;;1903526;75;21098;-90
2022/08/24 13:42:22;;;;;;;3.27;2.67;;;31.60;95.00;;;;;;1918848;74;21147;-91
2022/08/24 13:45:37;;;;;;;5.83;2.35;;;31.50;94.80;;;;;;1914719;75;21062;-89
2022/08/24 13:48:36;;;;;;;3.27;2.10;;;31.60;95.30;;;;;;1895032;75;21149;-90
2022/08/24 13:51:36;;;;;;;3.98;2.50;;;31.70;94.50;;;;;;1898308;75;21128;-91
2022/08/24 14:00:38;;;;;;;2.75;2.55;;;32.00;94.20;;;;;;1939024;72;22124;-79
2022/08/24 14:06:49;;;;;;;5.12;3.50;;;32.00;94.10;;;;;;1932536;72;22153;-79
2022/08/24 14:09:48;;;;;;;;;;;32.40;94.00;;;;;;1912178;74;21071;-81
2022/08/24 14:15:46;;;;;;;4.33;2.30;;;33.40;92.20;;;;;;1930616;72;22462;-79
2022/08/24 14:21:35;;;;;;;3.60;2.37;;;34.40;90.30;;;;;;1938727;72;22181;-79
2022/08/24 14:27:11;;;;;;;3.37;2.85;;;34.40;88.30;;;;;;1940153;72;22129;-79
2022/08/24 14:30:45;;;;;;;4.35;2.70;;;33.90;89.60;;;;;;1899119;75;21577;-82
2022/08/24 14:34:00;;;;;;;2.80;2.30;;;33.90;89.80;;;;;;1896398;75;21134;-83
2022/08/24 14:39:38;;;;;;;3.02;2.50;;;32.90;86.00;;;;;;1944315;72;22234;-83
2022/08/24 14:42:34;;;;;;;5.45;2.90;;;33.00;88.20;;;;;;1931127;73;21111;-81
2022/08/24 14:45:31;;;;;;;3.83;2.42;;;33.80;88.70;;;;;;1928674;73;21098;-79
2022/08/24 14:51:08;;;;;;;2.20;1.67;;;36.40;84.10;;;;;;1948887;72;22234;-79
2022/08/24 14:54:04;;;;;;;3.35;2.02;;;37.00;78.00;;;;;;1922155;73;21042;-78
2022/08/24 14:59:52;;;;;;;5.05;2.60;;;36.80;76.40;;;;;;1933049;72;22172;-81
2022/08/24 15:03:12;;;;;;;4.75;3.00;;;37.20;75.10;;;;;;1904866;75;21047;-81
2022/08/24 15:06:23;;;;;;;4.37;2.35;;;38.50;73.70;;;;;;1906996;75;21147;-82
2022/08/24 15:09:26;;;;;;;3.55;2.00;;;39.40;69.00;;;;;;1906362;75;21133;-81
2022/08/24 15:12:22;;;;;;;2.55;1.80;;;39.60;65.90;;;;;;1905023;75;21071;-81
2022/08/24 15:15:20;;;;;;;1.98;1.70;;;39.20;60.90;;;;;;1895603;75;21590;-88
2022/08/24 15:18:12;;;;;;;;;;;38.80;61.90;;;;;;1904133;75;21146;-79
2022/08/24 15:21:09;;;;;;;3.87;2.22;;;38.50;63.60;;;;;;1899238;75;20122;-86
2022/08/24 15:24:15;;;;;;;3.70;1.90;;;39.00;62.30;;;;;;1901539;75;21051;-81
2022/08/24 15:29:58;;;;;;;2.47;1.40;;;38.10;58.10;;;;;;1936062;72;22220;-82
2022/08/24 15:32:52;;;;;;;5.33;3.33;;;37.70;58.30;;;;;;1905010;75;21208;-82
2022/08/24 15:35:45;;;;;;;3.17;1.75;;;37.90;58.50;;;;;;1889561;75;21159;-88
2022/08/24 15:38:44;;;;;;;4.75;2.20;;;38.30;58.00;;;;;;1903700;75;21141;-86
2022/08/24 15:41:40;;;;;;;2.60;1.65;;;39.40;58.50;;;;;;1900070;75;21138;-83
2022/08/24 15:44:35;;;;;;;3.95;2.05;;;40.50;57.70;;;;;;1897691;75;21039;-83
2022/08/24 15:47:31;;;;;;;3.60;2.35;;;40.30;55.30;;;;;;1899271;75;21140;-82
2022/08/24 15:50:25;;;;;;;5.90;2.80;;;40.60;56.60;;;;;;1894098;75;21039;-83
2022/08/24 15:53:42;;;;;;;1.92;1.70;;;39.80;57.00;;;;;;1900220;75;21080;-88
2022/08/24 15:59:28;;;;;;;3.27;2.70;;;40.70;52.90;;;;;;1921049;72;28481;-88
2022/08/24 16:02:29;;;;;;;1.60;1.50;;;41.00;54.30;;;;;;1904801;75;21211;-88
2022/08/24 16:05:25;;;;;;;5.17;2.92;;;41.00;52.40;;;;;;1915241;75;21179;-81
2022/08/24 16:11:24;;;;;;;2.47;1.60;;;40.80;51.90;;;;;;1932128;72;22153;-85
2022/08/24 16:14:26;;;;;;;;;;;41.80;51.60;;;;;;1902199;75;21153;-84
2022/08/24 16:17:28;;;;;;;4.53;2.02;;;42.60;50.00;;;;;;1904556;75;20120;-79
2022/08/24 16:23:12;;;;;;;4.35;2.25;;;43.70;49.60;;;;;;1923964;72;22148;-81
2022/08/24 16:26:26;;;;;;;3.35;1.60;;;42.60;50.30;;;;;;1924991;74;21146;-80
2022/08/24 16:29:51;;;;;;;2.87;1.50;;;41.30;48.90;;;;;;1919443;74;21094;-81
2022/08/24 16:32:57;;;;;;;2.37;1.95;;;40.50;49.40;;;;;;1916293;74;21130;-80
2022/08/24 16:35:52;;;;;;;3.33;1.80;;;40.10;50.20;;;;;;1930360;73;21111;-80
2022/08/24 16:41:27;;;;;;;4.60;2.25;;;40.00;51.60;;;;;;1925894;72;22251;-79
2022/08/24 16:44:19;;;;;;;4.25;1.80;;;39.80;51.20;;;;;;1898216;75;21157;-82
2022/08/24 16:49:53;;;;;;;2.92;1.60;;;39.40;50.70;;;;;;1941200;72;22150;-78
2022/08/24 16:55:23;;;;;;;3.25;2.12;;;38.70;51.80;;;;;;1914414;72;22187;-83
2022/08/24 17:00:54;;;;;;;3.05;1.75;;;38.00;52.50;;;;;;1945113;72;22099;-89
2022/08/24 17:03:57;;;;;;;2.72;2.10;;;37.80;53.00;;;;;;1908627;73;21091;-89
2022/08/24 17:09:33;;;;;;;3.30;1.80;;;36.00;55.10;;;;;;1951742;72;22079;-89
2022/08/24 17:12:25;;;;;;;3.45;1.72;;;35.70;56.20;;;;;;1906115;75;21193;-88
2022/08/24 17:18:00;;;;;;;5.20;2.00;;;35.10;57.30;;;;;;1935843;72;22092;-88
2022/08/24 17:23:59;;;;;;;3.40;1.50;;;34.90;57.60;;;;;;1898089;75;21087;-88
2022/08/24 17:29:32;;;;;;;3.98;1.70;;;34.60;57.80;;;;;;1935899;72;22126;-83
2022/08/24 17:35:03;;;;;;;3.33;1.70;;;34.70;58.00;;;;;;1947774;72;22188;-87
2022/08/24 17:37:57;;;;;;;2.15;1.70;;;34.60;58.30;;;;;;1918557;73;21641;-77
2022/08/24 17:40:49;;;;;;;2.62;1.62;;;34.40;59.10;;;;;;1941998;73;21105;-84
2022/08/24 17:43:44;;;;;;;2.08;1.50;;;33.80;59.30;;;;;;1936664;73;21505;-87
2022/08/24 17:46:36;;;;;;;4.10;1.50;;;33.00;60.20;;;;;;1932523;73;21094;-78
2022/08/24 17:49:28;;;;;;;3.85;1.70;;;32.30;62.10;;;;;;1928838;73;21169;-79
2022/08/24 17:55:00;;;;;;;3.95;1.90;;;31.50;64.70;;;;;;1950497;72;22098;-78
2022/08/24 17:57:53;;;;;;;3.35;1.60;;;31.30;65.40;;;;;;1935220;73;21163;-78
2022/08/24 18:00:44;;;;;;;2.85;1.70;;;31.10;65.90;;;;;;1935578;73;21105;-78
2022/08/24 18:03:36;;;;;;;2.02;1.52;;;30.90;66.40;;;;;;1926762;73;21154;-79
2022/08/24 18:06:29;;;;;;;2.80;1.75;;;30.90;66.60;;;;;;1933845;73;21609;-80
2022/08/24 18:09:24;;;;;;;4.95;2.25;;;30.60;67.50;;;;;;1917301;75;21174;-85
2022/08/24 18:12:18;;;;;;;3.45;2.12;;;30.40;70.20;;;;;;1918082;73;21495;-85
2022/08/24 18:15:16;;;;;;;3.10;2.20;;;30.20;71.00;;;;;;1918528;73;21193;-87
2022/08/24 18:18:09;;;;;;;2.37;1.80;;;30.10;71.40;;;;;;1924655;73;21094;-86
2022/08/24 18:21:00;;;;;;;2.95;1.90;;;29.90;71.40;;;;;;1924294;73;21207;-86
2022/08/24 18:24:00;;;;;;;4.87;1.92;;;29.80;73.40;;;;;;1926392;73;21114;-86
2022/08/24 18:26:58;;;;;;;;;;;29.60;73.90;;;;;;1922924;73;21098;-87
2022/08/24 18:29:50;;;;;;;2.12;1.67;;;29.50;73.80;;;;;;1923571;73;20153;-87
2022/08/24 18:32:43;;;;;;;2.35;1.87;;;29.30;74.60;;;;;;1926304;73;21055;-87
2022/08/24 18:35:34;;;;;;;5.80;1.60;;;29.30;75.00;;;;;;1924083;73;21042;-87
2022/08/24 18:38:26;;;;;;;3.52;2.02;;;29.10;76.30;;;;;;1933083;73;21144;-87
2022/08/24 18:41:18;;;;;;;2.25;1.80;;;28.90;77.40;;;;;;1935056;73;21034;-87
2022/08/24 18:46:56;;;;;;;2.50;1.98;;;28.60;78.60;;;;;;1951257;72;22124;-86
2022/08/24 18:49:48;;;;;;;3.00;2.27;;;28.50;79.60;;;;;;1920790;73;21110;-86
2022/08/24 18:55:23;;;;;;;2.37;1.87;;;28.20;81.10;;;;;;1953507;72;22156;-86
2022/08/24 18:58:14;;;;;;;3.92;2.00;;;28.20;82.10;;;;;;1905162;75;21166;-87
2022/08/24 19:01:08;;;;;;;2.75;2.33;;;28.10;82.90;;;;;;1905096;75;21083;-87
2022/08/24 19:04:00;;;;;;;4.58;2.40;;;27.90;84.10;;;;;;1898619;75;21079;-86
2022/08/24 19:09:46;;;;;;;4.58;2.70;;;27.80;86.00;;;;;;1945183;72;22099;-86
2022/08/24 19:15:17;;;;;;;6.15;2.92;;;27.60;88.80;;;;;;1988260;71;22155;-86
2022/08/24 19:18:11;;;;;;;3.58;2.47;;;27.60;89.60;;;;;;1956228;72;21142;-86
2022/08/24 19:21:09;;;;;;;3.90;2.72;;;27.50;90.30;;;;;;1940403;74;21520;-85
2022/08/24 19:24:02;;;;;;;5.35;2.50;;;27.50;90.40;;;;;;1942134;72;21205;-86
2022/08/24 19:26:54;;;;;;;5.65;4.22;;;27.40;90.60;;;;;;1940674;74;21129;-86